Portada
METAR-TAF:

METAR-TAF

Aeroports :

Mécheria, Algèria

latitud: 34-56N, longitud: 000-26W, altitud: 1149 m

Observació

L'informe es va fer fa 41 minuts, a les 05:00 UTC
Vent 12 kt del Nord
Temperatura 3°C
Humitat 87%
Pressió 1022 hPa
Visibilitat 10 km o més
Escasses núvols a una alçada de 2000 ft
Núvols disperses a una alçada de 3000 ft

METAR: DAAY 200500Z 36012KT 9999 FEW020 SCT030 03/01 Q1022

Hora: 06:41 (05:41 UTC)

Pronòstic

L'informe es va fer fa 6 hores i 41 minuts, a les 23:00 UTC
Pronòstic vàlid del 20 a les 00 UTC al 20 a les 09 UTC
Vent 16 kt del Nord
Visibilitat: 8000 m
Cel ennuvolat a una alçada de 3000 ft
Temporalment
l' 20 a les 00 UTC al 20 a les 06 UTC
Visibilitat: 5000 m
pluja

TAF: DAAY 192300Z 2000/2009 36016KT 8000 BKN030 TEMPO 2000/2006 5000 RA

Observacions i pronòstics meteorològics de més de 4000 aeroports (METAR i TAF).

Les estacions disponibles són els punts grocs i vermells al mapa.

Posi el ratolí al punt desitjat per veure el nom de l'estació.

Feu clic per veure les observacions i els pronòstics meteorològics.

Per canviar el mapa: feu clic els botons verds amb una creu de color negre per apropar; al botó verd amb un guió per allunyar la imatge; o en les fletxes verdes per a mapes adjacents.


METAR-TAF: